sensor_id;sensor_type;location;lat;lon;timestamp;pressure;altitude;pressure_sealevel;temperature
26158;BMP280;67284;44.782;10.282;2023-07-09T00:02:27;101366.97;;;24.21
26158;BMP280;67284;44.782;10.282;2023-07-09T00:07:30;101371.50;;;24.18
26158;BMP280;67284;44.782;10.282;2023-07-09T00:12:22;101368.31;;;24.13
26158;BMP280;67284;44.782;10.282;2023-07-09T00:17:27;101367.78;;;24.07
26158;BMP280;67284;44.782;10.282;2023-07-09T00:22:20;101368.72;;;24.06
26158;BMP280;67284;44.782;10.282;2023-07-09T00:27:12;101367.16;;;24.02
26158;BMP280;67284;44.782;10.282;2023-07-09T00:32:11;101374.38;;;23.98
26158;BMP280;67284;44.782;10.282;2023-07-09T00:37:07;101364.03;;;23.95
26158;BMP280;67284;44.782;10.282;2023-07-09T00:41:59;101377.34;;;23.92
26158;BMP280;67284;44.782;10.282;2023-07-09T00:51:46;101377.66;;;23.86
26158;BMP280;67284;44.782;10.282;2023-07-09T00:56:40;101385.78;;;23.82
26158;BMP280;67284;44.782;10.282;2023-07-09T01:01:34;101378.91;;;23.79
26158;BMP280;67284;44.782;10.282;2023-07-09T01:06:39;101381.78;;;23.75
26158;BMP280;67284;44.782;10.282;2023-07-09T01:11:34;101379.41;;;23.70
26158;BMP280;67284;44.782;10.282;2023-07-09T01:16:29;101381.38;;;23.67
26158;BMP280;67284;44.782;10.282;2023-07-09T01:21:22;101387.94;;;23.58
26158;BMP280;67284;44.782;10.282;2023-07-09T01:26:17;101376.88;;;23.52
26158;BMP280;67284;44.782;10.282;2023-07-09T01:31:10;101383.38;;;23.45
26158;BMP280;67284;44.782;10.282;2023-07-09T01:36:03;101365.16;;;23.42
26158;BMP280;67284;44.782;10.282;2023-07-09T01:40:56;101381.06;;;23.39
26158;BMP280;67284;44.782;10.282;2023-07-09T01:45:48;101375.97;;;23.36
26158;BMP280;67284;44.782;10.282;2023-07-09T01:50:42;101365.47;;;23.36
26158;BMP280;67284;44.782;10.282;2023-07-09T01:55:34;101369.78;;;23.37
26158;BMP280;67284;44.782;10.282;2023-07-09T02:00:26;101374.28;;;23.35
26158;BMP280;67284;44.782;10.282;2023-07-09T02:05:19;101368.25;;;23.33
26158;BMP280;67284;44.782;10.282;2023-07-09T02:10:12;101374.53;;;23.31
26158;BMP280;67284;44.782;10.282;2023-07-09T02:15:05;101385.19;;;23.28
26158;BMP280;67284;44.782;10.282;2023-07-09T02:19:57;101386.03;;;23.28
26158;BMP280;67284;44.782;10.282;2023-07-09T02:24:49;101381.59;;;23.29
26158;BMP280;67284;44.782;10.282;2023-07-09T02:29:41;101380.59;;;23.31
26158;BMP280;67284;44.782;10.282;2023-07-09T02:34:34;101389.28;;;23.33
26158;BMP280;67284;44.782;10.282;2023-07-09T02:39:26;101395.38;;;23.34
26158;BMP280;67284;44.782;10.282;2023-07-09T02:44:19;101386.56;;;23.35
26158;BMP280;67284;44.782;10.282;2023-07-09T02:49:13;101394.53;;;23.33
26158;BMP280;67284;44.782;10.282;2023-07-09T02:54:05;101395.53;;;23.31
26158;BMP280;67284;44.782;10.282;2023-07-09T02:58:57;101395.53;;;23.31
26158;BMP280;67284;44.782;10.282;2023-07-09T03:03:53;101406.88;;;23.31
26158;BMP280;67284;44.782;10.282;2023-07-09T03:08:45;101399.91;;;23.30
26158;BMP280;67284;44.782;10.282;2023-07-09T03:13:36;101410.41;;;23.30
26158;BMP280;67284;44.782;10.282;2023-07-09T03:18:28;101414.81;;;23.30
26158;BMP280;67284;44.782;10.282;2023-07-09T03:23:20;101416.53;;;23.31
26158;BMP280;67284;44.782;10.282;2023-07-09T03:28:12;101421.78;;;23.31
26158;BMP280;67284;44.782;10.282;2023-07-09T03:33:04;101418.28;;;23.30
26158;BMP280;67284;44.782;10.282;2023-07-09T03:37:56;101420.91;;;23.30
26158;BMP280;67284;44.782;10.282;2023-07-09T03:42:49;101415.66;;;23.30
26158;BMP280;67284;44.782;10.282;2023-07-09T03:47:40;101427.03;;;23.31
26158;BMP280;67284;44.782;10.282;2023-07-09T03:52:32;101429.75;;;23.29
26158;BMP280;67284;44.782;10.282;2023-07-09T03:57:24;101437.78;;;23.26
26158;BMP280;67284;44.782;10.282;2023-07-09T04:02:17;101436.06;;;23.25
26158;BMP280;67284;44.782;10.282;2023-07-09T04:07:09;101438.69;;;23.25
26158;BMP280;67284;44.782;10.282;2023-07-09T04:12:02;101436.97;;;23.24
26158;BMP280;67284;44.782;10.282;2023-07-09T04:16:54;101434.28;;;23.26
26158;BMP280;67284;44.782;10.282;2023-07-09T04:21:46;101429.91;;;23.26
26158;BMP280;67284;44.782;10.282;2023-07-09T04:26:38;101436.81;;;23.27
26158;BMP280;67284;44.782;10.282;2023-07-09T04:31:30;101433.38;;;23.27
26158;BMP280;67284;44.782;10.282;2023-07-09T04:36:22;101440.41;;;23.26
26158;BMP280;67284;44.782;10.282;2023-07-09T04:41:14;101436.00;;;23.27
26158;BMP280;67284;44.782;10.282;2023-07-09T04:46:06;101443.94;;;23.25
26158;BMP280;67284;44.782;10.282;2023-07-09T04:50:58;101431.72;;;23.24
26158;BMP280;67284;44.782;10.282;2023-07-09T04:55:51;101434.28;;;23.26
26158;BMP280;67284;44.782;10.282;2023-07-09T05:00:43;101433.28;;;23.28
26158;BMP280;67284;44.782;10.282;2023-07-09T05:05:35;101437.69;;;23.28
26158;BMP280;67284;44.782;10.282;2023-07-09T05:10:27;101451.59;;;23.30
26158;BMP280;67284;44.782;10.282;2023-07-09T05:15:20;101442.88;;;23.29
26158;BMP280;67284;44.782;10.282;2023-07-09T05:20:14;101450.75;;;23.29
26158;BMP280;67284;44.782;10.282;2023-07-09T05:25:06;101456.00;;;23.29
26158;BMP280;67284;44.782;10.282;2023-07-09T05:29:58;101462.84;;;23.32
26158;BMP280;67284;44.782;10.282;2023-07-09T05:34:50;101461.09;;;23.32
26158;BMP280;67284;44.782;10.282;2023-07-09T05:39:42;101462.81;;;23.33
26158;BMP280;67284;44.782;10.282;2023-07-09T05:44:33;101466.19;;;23.35
26158;BMP280;67284;44.782;10.282;2023-07-09T05:49:25;101466.19;;;23.35
26158;BMP280;67284;44.782;10.282;2023-07-09T05:54:17;101464.41;;;23.36
26158;BMP280;67284;44.782;10.282;2023-07-09T05:59:10;101479.16;;;23.38
26158;BMP280;67284;44.782;10.282;2023-07-09T06:04:02;101472.91;;;23.41
26158;BMP280;67284;44.782;10.282;2023-07-09T06:08:55;101471.03;;;23.43
26158;BMP280;67284;44.782;10.282;2023-07-09T06:13:47;101477.09;;;23.45
26158;BMP280;67284;44.782;10.282;2023-07-09T06:18:40;101476.06;;;23.47
26158;BMP280;67284;44.782;10.282;2023-07-09T06:23:32;101471.69;;;23.48
26158;BMP280;67284;44.782;10.282;2023-07-09T06:28:26;101478.56;;;23.50
26158;BMP280;67284;44.782;10.282;2023-07-09T06:33:20;101467.09;;;23.51
26158;BMP280;67284;44.782;10.282;2023-07-09T06:38:12;101474.06;;;23.52
26158;BMP280;67284;44.782;10.282;2023-07-09T06:43:04;101478.31;;;23.55
26158;BMP280;67284;44.782;10.282;2023-07-09T06:48:02;101473.91;;;23.55
26158;BMP280;67284;44.782;10.282;2023-07-09T06:52:53;101471.19;;;23.56
26158;BMP280;67284;44.782;10.282;2023-07-09T06:57:45;101473.75;;;23.58
26158;BMP280;67284;44.782;10.282;2023-07-09T07:02:37;101478.00;;;23.60
26158;BMP280;67284;44.782;10.282;2023-07-09T07:07:29;101475.38;;;23.60
26158;BMP280;67284;44.782;10.282;2023-07-09T07:12:26;101483.19;;;23.62
26158;BMP280;67284;44.782;10.282;2023-07-09T07:17:19;101479.56;;;23.64
26158;BMP280;67284;44.782;10.282;2023-07-09T07:22:11;101478.63;;;23.65
26158;BMP280;67284;44.782;10.282;2023-07-09T07:27:03;101478.59;;;23.67
26158;BMP280;67284;44.782;10.282;2023-07-09T07:31:55;101481.81;;;23.72
26158;BMP280;67284;44.782;10.282;2023-07-09T07:36:49;101483.53;;;23.73
26158;BMP280;67284;44.782;10.282;2023-07-09T07:41:41;101484.28;;;23.75
26158;BMP280;67284;44.782;10.282;2023-07-09T07:46:34;101470.22;;;23.76
26158;BMP280;67284;44.782;10.282;2023-07-09T07:51:26;101482.88;;;23.85
26158;BMP280;67284;44.782;10.282;2023-07-09T07:56:18;101465.00;;;23.91
26158;BMP280;67284;44.782;10.282;2023-07-09T08:01:10;101470.09;;;23.94
26158;BMP280;67284;44.782;10.282;2023-07-09T08:06:02;101464.75;;;23.96
26158;BMP280;67284;44.782;10.282;2023-07-09T08:11:02;101461.81;;;24.02
26158;BMP280;67284;44.782;10.282;2023-07-09T08:15:57;101459.03;;;24.05
26158;BMP280;67284;44.782;10.282;2023-07-09T08:20:48;101464.22;;;24.06
26158;BMP280;67284;44.782;10.282;2023-07-09T08:25:40;101457.91;;;24.08
26158;BMP280;67284;44.782;10.282;2023-07-09T08:30:33;101457.53;;;24.16
26158;BMP280;67284;44.782;10.282;2023-07-09T08:35:25;101460.09;;;24.17
26158;BMP280;67284;44.782;10.282;2023-07-09T08:40:27;101458.38;;;24.16
26158;BMP280;67284;44.782;10.282;2023-07-09T08:50:40;101459.91;;;24.20
26158;BMP280;67284;44.782;10.282;2023-07-09T08:55:33;101459.56;;;24.26
26158;BMP280;67284;44.782;10.282;2023-07-09T09:00:35;101456.69;;;24.31
26158;BMP280;67284;44.782;10.282;2023-07-09T09:05:35;101452.66;;;24.41
26158;BMP280;67284;44.782;10.282;2023-07-09T09:10:33;101442.91;;;24.43
26158;BMP280;67284;44.782;10.282;2023-07-09T09:15:29;101452.34;;;24.47
26158;BMP280;67284;44.782;10.282;2023-07-09T09:20:22;101456.56;;;24.49
26158;BMP280;67284;44.782;10.282;2023-07-09T09:30:13;101453.53;;;24.72
26158;BMP280;67284;44.782;10.282;2023-07-09T09:35:14;101448.44;;;24.84
26158;BMP280;67284;44.782;10.282;2023-07-09T09:40:10;101450.97;;;24.86
26158;BMP280;67284;44.782;10.282;2023-07-09T09:45:13;101444.06;;;24.99
26158;BMP280;67284;44.782;10.282;2023-07-09T09:50:06;101449.34;;;24.99
26158;BMP280;67284;44.782;10.282;2023-07-09T09:55:08;101448.25;;;25.03
26158;BMP280;67284;44.782;10.282;2023-07-09T10:00:01;101443.56;;;25.08
26158;BMP280;67284;44.782;10.282;2023-07-09T10:04:56;101442.19;;;25.01
26158;BMP280;67284;44.782;10.282;2023-07-09T10:09:54;101433.81;;;25.10
26158;BMP280;67284;44.782;10.282;2023-07-09T10:19:58;101432.84;;;25.11
26158;BMP280;67284;44.782;10.282;2023-07-09T10:25:01;101438.75;;;25.29
26158;BMP280;67284;44.782;10.282;2023-07-09T10:30:30;101437.00;;;25.44
26158;BMP280;67284;44.782;10.282;2023-07-09T10:35:37;101433.16;;;25.49
26158;BMP280;67284;44.782;10.282;2023-07-09T10:40:52;101432.59;;;25.58
26158;BMP280;67284;44.782;10.282;2023-07-09T10:45:47;101439.72;;;25.71
26158;BMP280;67284;44.782;10.282;2023-07-09T10:50:42;101427.28;;;25.87
26158;BMP280;67284;44.782;10.282;2023-07-09T10:55:46;101423.91;;;25.99
26158;BMP280;67284;44.782;10.282;2023-07-09T11:00:40;101419.38;;;25.87
26158;BMP280;67284;44.782;10.282;2023-07-09T11:05:33;101422.59;;;25.78
26158;BMP280;67284;44.782;10.282;2023-07-09T11:10:29;101424.00;;;25.70
26158;BMP280;67284;44.782;10.282;2023-07-09T11:15:30;101418.69;;;25.56
26158;BMP280;67284;44.782;10.282;2023-07-09T11:20:35;101415.44;;;25.80
26158;BMP280;67284;44.782;10.282;2023-07-09T11:25:43;101406.28;;;25.86
26158;BMP280;67284;44.782;10.282;2023-07-09T11:30:51;101415.31;;;26.10
26158;BMP280;67284;44.782;10.282;2023-07-09T11:36:05;101412.69;;;26.10
26158;BMP280;67284;44.782;10.282;2023-07-09T11:40:58;101390.19;;;25.90
26158;BMP280;67284;44.782;10.282;2023-07-09T11:45:50;101399.59;;;25.80
26158;BMP280;67284;44.782;10.282;2023-07-09T11:50:45;101395.50;;;25.76
26158;BMP280;67284;44.782;10.282;2023-07-09T11:55:40;101389.53;;;26.01
26158;BMP280;67284;44.782;10.282;2023-07-09T12:00:41;101376.56;;;25.98
26158;BMP280;67284;44.782;10.282;2023-07-09T12:05:33;101371.56;;;26.07
26158;BMP280;67284;44.782;10.282;2023-07-09T12:10:28;101364.97;;;26.00
26158;BMP280;67284;44.782;10.282;2023-07-09T12:15:24;101370.16;;;26.02
26158;BMP280;67284;44.782;10.282;2023-07-09T12:20:16;101366.53;;;26.03
26158;BMP280;67284;44.782;10.282;2023-07-09T12:25:19;101347.75;;;25.95
26158;BMP280;67284;44.782;10.282;2023-07-09T12:30:13;101349.50;;;25.94
26158;BMP280;67284;44.782;10.282;2023-07-09T12:35:12;101341.94;;;26.16
26158;BMP280;67284;44.782;10.282;2023-07-09T12:40:13;101337.31;;;26.33
26158;BMP280;67284;44.782;10.282;2023-07-09T12:45:08;101318.22;;;26.30
26158;BMP280;67284;44.782;10.282;2023-07-09T12:55:20;101316.03;;;26.23
26158;BMP280;67284;44.782;10.282;2023-07-09T13:00:17;101306.75;;;26.29
26158;BMP280;67284;44.782;10.282;2023-07-09T13:05:23;101302.63;;;26.39
26158;BMP280;67284;44.782;10.282;2023-07-09T13:10:18;101313.50;;;26.47
26158;BMP280;67284;44.782;10.282;2023-07-09T13:15:31;101297.53;;;26.36
26158;BMP280;67284;44.782;10.282;2023-07-09T13:20:32;101299.38;;;26.48
26158;BMP280;67284;44.782;10.282;2023-07-09T13:25:24;101295.34;;;26.69
26158;BMP280;67284;44.782;10.282;2023-07-09T13:30:35;101275.72;;;26.85
26158;BMP280;67284;44.782;10.282;2023-07-09T13:35:27;101283.06;;;27.07
26158;BMP280;67284;44.782;10.282;2023-07-09T13:40:20;101275.44;;;27.15
26158;BMP280;67284;44.782;10.282;2023-07-09T13:45:18;101277.91;;;27.18
26158;BMP280;67284;44.782;10.282;2023-07-09T13:50:10;101276.09;;;27.30
26158;BMP280;67284;44.782;10.282;2023-07-09T13:55:02;101272.78;;;27.39
26158;BMP280;67284;44.782;10.282;2023-07-09T13:59:54;101269.13;;;27.54
26158;BMP280;67284;44.782;10.282;2023-07-09T14:04:47;101266.88;;;27.48
26158;BMP280;67284;44.782;10.282;2023-07-09T14:09:39;101270.38;;;27.61
26158;BMP280;67284;44.782;10.282;2023-07-09T14:14:32;101272.16;;;27.61
26158;BMP280;67284;44.782;10.282;2023-07-09T14:19:25;101270.47;;;27.47
26158;BMP280;67284;44.782;10.282;2023-07-09T14:24:27;101261.59;;;27.48
26158;BMP280;67284;44.782;10.282;2023-07-09T14:29:20;101257.50;;;27.57
26158;BMP280;67284;44.782;10.282;2023-07-09T14:34:22;101263.81;;;27.67
26158;BMP280;67284;44.782;10.282;2023-07-09T14:39:15;101263.59;;;27.70
26158;BMP280;67284;44.782;10.282;2023-07-09T14:44:20;101251.66;;;27.64
26158;BMP280;67284;44.782;10.282;2023-07-09T14:49:13;101245.94;;;27.58
26158;BMP280;67284;44.782;10.282;2023-07-09T14:54:26;101254.06;;;27.67
26158;BMP280;67284;44.782;10.282;2023-07-09T14:59:19;101241.66;;;27.80
26158;BMP280;67284;44.782;10.282;2023-07-09T15:04:28;101245.06;;;27.82
26158;BMP280;67284;44.782;10.282;2023-07-09T15:09:23;101229.41;;;27.79
26158;BMP280;67284;44.782;10.282;2023-07-09T15:14:15;101229.31;;;27.81
26158;BMP280;67284;44.782;10.282;2023-07-09T15:19:12;101222.19;;;27.81
26158;BMP280;67284;44.782;10.282;2023-07-09T15:24:04;101219.84;;;27.89
26158;BMP280;67284;44.782;10.282;2023-07-09T15:28:58;101212.19;;;27.97
26158;BMP280;67284;44.782;10.282;2023-07-09T15:33:50;101214.84;;;27.97
26158;BMP280;67284;44.782;10.282;2023-07-09T15:38:42;101215.81;;;27.96
26158;BMP280;67284;44.782;10.282;2023-07-09T15:43:34;101207.88;;;27.96
26158;BMP280;67284;44.782;10.282;2023-07-09T15:48:35;101197.56;;;27.81
26158;BMP280;67284;44.782;10.282;2023-07-09T15:53:27;101191.72;;;27.88
26158;BMP280;67284;44.782;10.282;2023-07-09T15:58:22;101195.03;;;28.02
26158;BMP280;67284;44.782;10.282;2023-07-09T16:03:15;101186.13;;;28.03
26158;BMP280;67284;44.782;10.282;2023-07-09T16:08:13;101185.09;;;28.06
26158;BMP280;67284;44.782;10.282;2023-07-09T16:13:18;101181.91;;;28.01
26158;BMP280;67284;44.782;10.282;2023-07-09T16:18:11;101183.22;;;27.95
26158;BMP280;67284;44.782;10.282;2023-07-09T16:23:12;101176.44;;;27.91
26158;BMP280;67284;44.782;10.282;2023-07-09T16:28:13;101175.72;;;27.89
26158;BMP280;67284;44.782;10.282;2023-07-09T16:33:06;101173.69;;;27.93
26158;BMP280;67284;44.782;10.282;2023-07-09T16:37:59;101168.16;;;27.85
26158;BMP280;67284;44.782;10.282;2023-07-09T16:42:52;101177.78;;;27.86
26158;BMP280;67284;44.782;10.282;2023-07-09T16:47:44;101168.31;;;27.94
26158;BMP280;67284;44.782;10.282;2023-07-09T16:52:36;101164.56;;;27.86
26158;BMP280;67284;44.782;10.282;2023-07-09T16:57:31;101165.88;;;27.91
26158;BMP280;67284;44.782;10.282;2023-07-09T17:07:17;101167.63;;;27.80
26158;BMP280;67284;44.782;10.282;2023-07-09T17:12:10;101171.25;;;27.79
26158;BMP280;67284;44.782;10.282;2023-07-09T17:17:03;101166.44;;;27.84
26158;BMP280;67284;44.782;10.282;2023-07-09T17:21:58;101170.50;;;27.77
26158;BMP280;67284;44.782;10.282;2023-07-09T17:26:52;101183.81;;;27.76
26158;BMP280;67284;44.782;10.282;2023-07-09T17:31:45;101176.72;;;27.76
26158;BMP280;67284;44.782;10.282;2023-07-09T17:36:37;101173.19;;;27.65
26158;BMP280;67284;44.782;10.282;2023-07-09T17:41:29;101174.03;;;27.65
26158;BMP280;67284;44.782;10.282;2023-07-09T17:46:21;101181.28;;;27.74
26158;BMP280;67284;44.782;10.282;2023-07-09T17:51:13;101179.44;;;27.64
26158;BMP280;67284;44.782;10.282;2023-07-09T17:56:18;101183.03;;;27.50
26158;BMP280;67284;44.782;10.282;2023-07-09T18:01:10;101182.31;;;27.48
26158;BMP280;67284;44.782;10.282;2023-07-09T18:06:02;101175.78;;;27.41
26158;BMP280;67284;44.782;10.282;2023-07-09T18:10:55;101176.94;;;27.37
26158;BMP280;67284;44.782;10.282;2023-07-09T18:15:52;101196.06;;;27.28
26158;BMP280;67284;44.782;10.282;2023-07-09T18:20:44;101193.66;;;27.26
26158;BMP280;67284;44.782;10.282;2023-07-09T18:25:38;101192.94;;;27.24
26158;BMP280;67284;44.782;10.282;2023-07-09T18:30:33;101191.22;;;27.23
26158;BMP280;67284;44.782;10.282;2023-07-09T18:40:20;101194.31;;;27.17
26158;BMP280;67284;44.782;10.282;2023-07-09T18:45:16;101187.44;;;27.14
26158;BMP280;67284;44.782;10.282;2023-07-09T18:50:27;101199.16;;;27.10
26158;BMP280;67284;44.782;10.282;2023-07-09T18:55:22;101194.00;;;27.09
26158;BMP280;67284;44.782;10.282;2023-07-09T19:00:15;101194.97;;;27.08
26158;BMP280;67284;44.782;10.282;2023-07-09T19:05:11;101195.91;;;27.07
26158;BMP280;67284;44.782;10.282;2023-07-09T19:10:04;101203.94;;;27.05
26158;BMP280;67284;44.782;10.282;2023-07-09T19:14:56;101210.06;;;27.06
26158;BMP280;67284;44.782;10.282;2023-07-09T19:19:48;101210.47;;;27.00
26158;BMP280;67284;44.782;10.282;2023-07-09T19:24:42;101212.47;;;26.96
26158;BMP280;67284;44.782;10.282;2023-07-09T19:29:34;101226.91;;;26.91
26158;BMP280;67284;44.782;10.282;2023-07-09T19:34:28;101224.47;;;26.88
26158;BMP280;67284;44.782;10.282;2023-07-09T19:39:25;101241.47;;;26.84
26158;BMP280;67284;44.782;10.282;2023-07-09T19:44:17;101245.31;;;26.80
26158;BMP280;67284;44.782;10.282;2023-07-09T19:49:10;101250.97;;;26.74
26158;BMP280;67284;44.782;10.282;2023-07-09T19:54:14;101253.09;;;26.69
26158;BMP280;67284;44.782;10.282;2023-07-09T19:59:06;101261.31;;;26.65
26158;BMP280;67284;44.782;10.282;2023-07-09T20:03:58;101258.97;;;26.60
26158;BMP280;67284;44.782;10.282;2023-07-09T20:08:50;101261.09;;;26.55
26158;BMP280;67284;44.782;10.282;2023-07-09T20:13:42;101264.88;;;26.51
26158;BMP280;67284;44.782;10.282;2023-07-09T20:18:34;101263.38;;;26.47
26158;BMP280;67284;44.782;10.282;2023-07-09T20:23:29;101258.31;;;26.44
26158;BMP280;67284;44.782;10.282;2023-07-09T20:28:24;101262.97;;;26.41
26158;BMP280;67284;44.782;10.282;2023-07-09T20:33:16;101255.31;;;26.36
26158;BMP280;67284;44.782;10.282;2023-07-09T20:38:17;101259.03;;;26.34
26158;BMP280;67284;44.782;10.282;2023-07-09T20:43:20;101267.19;;;26.29
26158;BMP280;67284;44.782;10.282;2023-07-09T20:48:13;101268.34;;;26.25
26158;BMP280;67284;44.782;10.282;2023-07-09T20:53:05;101269.50;;;26.22
26158;BMP280;67284;44.782;10.282;2023-07-09T20:57:57;101280.34;;;26.17
26158;BMP280;67284;44.782;10.282;2023-07-09T21:02:49;101284.97;;;26.14
26158;BMP280;67284;44.782;10.282;2023-07-09T21:07:46;101285.38;;;26.08
26158;BMP280;67284;44.782;10.282;2023-07-09T21:12:39;101288.31;;;26.03
26158;BMP280;67284;44.782;10.282;2023-07-09T21:17:31;101299.16;;;25.99
26158;BMP280;67284;44.782;10.282;2023-07-09T21:22:23;101307.22;;;25.96
26158;BMP280;67284;44.782;10.282;2023-07-09T21:27:15;101309.13;;;25.94
26158;BMP280;67284;44.782;10.282;2023-07-09T21:32:18;101311.88;;;25.92
26158;BMP280;67284;44.782;10.282;2023-07-09T21:37:17;101312.06;;;25.89
26158;BMP280;67284;44.782;10.282;2023-07-09T21:42:09;101323.53;;;25.88
26158;BMP280;67284;44.782;10.282;2023-07-09T21:47:07;101320.38;;;25.83
26158;BMP280;67284;44.782;10.282;2023-07-09T21:51:59;101324.22;;;25.78
26158;BMP280;67284;44.782;10.282;2023-07-09T21:56:51;101323.66;;;25.73
26158;BMP280;67284;44.782;10.282;2023-07-09T22:01:43;101330.06;;;25.69
26158;BMP280;67284;44.782;10.282;2023-07-09T22:06:35;101333.03;;;25.63
26158;BMP280;67284;44.782;10.282;2023-07-09T22:11:27;101322.59;;;25.62
26158;BMP280;67284;44.782;10.282;2023-07-09T22:16:20;101339.44;;;25.59
26158;BMP280;67284;44.782;10.282;2023-07-09T22:21:12;101338.88;;;25.54
26158;BMP280;67284;44.782;10.282;2023-07-09T22:26:05;101340.84;;;25.51
26158;BMP280;67284;44.782;10.282;2023-07-09T22:30:58;101334.94;;;25.47
26158;BMP280;67284;44.782;10.282;2023-07-09T22:35:50;101342.06;;;25.45
26158;BMP280;67284;44.782;10.282;2023-07-09T22:40:41;101341.22;;;25.45
26158;BMP280;67284;44.782;10.282;2023-07-09T22:45:33;101341.31;;;25.43
26158;BMP280;67284;44.782;10.282;2023-07-09T22:50:31;101346.88;;;25.39
26158;BMP280;67284;44.782;10.282;2023-07-09T22:55:28;101347.13;;;25.34
26158;BMP280;67284;44.782;10.282;2023-07-09T23:00:20;101349.09;;;25.31
26158;BMP280;67284;44.782;10.282;2023-07-09T23:05:12;101351.00;;;25.29
26158;BMP280;67284;44.782;10.282;2023-07-09T23:10:05;101352.03;;;25.26
26158;BMP280;67284;44.782;10.282;2023-07-09T23:14:57;101355.69;;;25.24
26158;BMP280;67284;44.782;10.282;2023-07-09T23:19:49;101350.59;;;25.21
26158;BMP280;67284;44.782;10.282;2023-07-09T23:24:41;101347.28;;;25.17
26158;BMP280;67284;44.782;10.282;2023-07-09T23:29:32;101354.44;;;25.16
26158;BMP280;67284;44.782;10.282;2023-07-09T23:34:24;101351.91;;;25.14
26158;BMP280;67284;44.782;10.282;2023-07-09T23:39:16;101349.34;;;25.13
26158;BMP280;67284;44.782;10.282;2023-07-09T23:44:18;101354.81;;;25.10
26158;BMP280;67284;44.782;10.282;2023-07-09T23:49:19;101355.00;;;25.07
26158;BMP280;67284;44.782;10.282;2023-07-09T23:54:12;101358.56;;;25.06
26158;BMP280;67284;44.782;10.282;2023-07-09T23:59:04;101354.47;;;25.00
